Time;durP1;ratioP1;P1;durP2;ratioP2;P2;SDS_P1;SDS_P2;PMS_P1;PMS_P2;Temp;Humidity;BMP_temperature;BMP_pressure;BME280_temperature;BME280_humidity;BME280_pressure;Samples;Min_cycle;Max_cycle;Signal;HPM_P1;HPM_P2
2021/03/08 00:02:10;;;;;;;49.03;24.05;;;;;;;;;;5051975;28;20056;-64
2021/03/08 00:04:56;;;;;;;44.67;24.58;;;;;;;;;;5051842;28;20049;-63
2021/03/08 00:07:41;;;;;;;43.40;22.95;;;;;;;;;;5051367;28;20076;-63
2021/03/08 00:10:27;;;;;;;56.92;25.25;;;;;;;;;;5051324;28;20056;-62
2021/03/08 00:13:12;;;;;;;51.55;24.95;;;;;;;;;;5051582;28;20048;-63
2021/03/08 00:15:58;;;;;;;48.63;25.60;;;;;;;;;;5060200;22;20526;-65
2021/03/08 00:18:43;;;;;;;47.30;24.45;;;;;;;;;;5032306;28;20041;-66
2021/03/08 00:21:28;;;;;;;45.60;24.85;;;;;;;;;;5051064;28;20494;-65
2021/03/08 00:24:14;;;;;;;50.10;25.13;;;;;;;;;;5035329;28;20045;-65
2021/03/08 00:26:59;;;;;;;53.97;25.42;;;;;;;;;;5035264;28;20503;-65
2021/03/08 00:29:44;;;;;;;51.55;25.52;;;;;;;;;;5024582;28;20047;-65
2021/03/08 00:32:30;;;;;;;51.05;23.73;;;;;;;;;;5055217;28;20056;-64
2021/03/08 00:35:15;;;;;;;44.20;23.75;;;;;;;;;;5055246;28;20040;-63
2021/03/08 00:38:00;;;;;;;48.30;24.25;;;;;;;;;;5054943;28;20048;-64
2021/03/08 00:40:46;;;;;;;48.17;25.30;;;;;;;;;;5043684;28;20064;-64
2021/03/08 00:43:31;;;;;;;45.17;23.95;;;;;;;;;;5035155;28;20048;-64
2021/03/08 00:46:17;;;;;;;55.97;27.45;;;;;;;;;;5035319;28;20123;-64
2021/03/08 00:49:02;;;;;;;54.90;25.33;;;;;;;;;;5035085;28;20046;-64
2021/03/08 00:51:48;;;;;;;51.30;24.75;;;;;;;;;;5040082;28;20048;-63
2021/03/08 00:54:33;;;;;;;49.63;24.52;;;;;;;;;;5054940;28;20415;-64
2021/03/08 00:57:19;;;;;;;59.45;27.60;;;;;;;;;;5054730;28;20107;-64
2021/03/08 01:00:09;;;;;;;57.10;26.00;;;;;;;;;;5039121;28;20128;-63
2021/03/08 01:02:58;;;;;;;62.05;29.38;;;;;;;;;;5019855;28;20050;-64
2021/03/08 01:05:46;;;;;;;67.32;29.17;;;;;;;;;;5019647;28;20131;-65
2021/03/08 01:08:41;;;;;;;64.70;28.85;;;;;;;;;;5019425;28;20041;-65
2021/03/08 01:11:29;;;;;;;71.95;31.77;;;;;;;;;;5028354;28;20049;-65
2021/03/08 01:14:25;;;;;;;68.75;30.83;;;;;;;;;;5039323;28;20130;-65
2021/03/08 01:17:11;;;;;;;56.03;25.45;;;;;;;;;;5034312;28;20077;-65
2021/03/08 01:19:56;;;;;;;69.53;27.55;;;;;;;;;;5034399;28;20057;-66
2021/03/08 01:22:42;;;;;;;39.83;18.48;;;;;;;;;;5034632;28;20049;-66
2021/03/08 01:25:30;;;;;;;17.20;9.52;;;;;;;;;;5034212;28;20046;-65
2021/03/08 01:28:16;;;;;;;16.25;8.82;;;;;;;;;;5034111;28;20045;-66
2021/03/08 01:31:01;;;;;;;17.73;9.50;;;;;;;;;;5033794;28;20140;-65
2021/03/08 01:33:50;;;;;;;17.05;8.13;;;;;;;;;;5034157;28;20598;-66
2021/03/08 01:36:36;;;;;;;18.27;8.25;;;;;;;;;;5034147;28;20056;-65
2021/03/08 01:39:21;;;;;;;11.43;6.32;;;;;;;;;;5033646;28;20049;-66
2021/03/08 01:42:07;;;;;;;16.98;6.93;;;;;;;;;;5034376;28;20511;-66
2021/03/08 01:44:52;;;;;;;13.13;5.88;;;;;;;;;;5034049;28;20069;-66
2021/03/08 01:47:37;;;;;;;14.40;5.57;;;;;;;;;;5038709;28;20041;-65
2021/03/08 01:50:34;;;;;;;9.48;4.68;;;;;;;;;;5053788;28;20491;-66
2021/03/08 01:53:20;;;;;;;12.20;4.70;;;;;;;;;;5041556;28;20128;-64
2021/03/08 01:56:05;;;;;;;10.25;3.97;;;;;;;;;;5033680;28;20050;-65
2021/03/08 01:58:51;;;;;;;10.05;3.63;;;;;;;;;;5033621;28;20141;-65
2021/03/08 02:01:36;;;;;;;10.02;3.80;;;;;;;;;;5033615;28;20063;-64
2021/03/08 02:04:21;;;;;;;8.88;4.05;;;;;;;;;;5036448;28;20654;-64
2021/03/08 02:07:07;;;;;;;11.27;3.78;;;;;;;;;;5053330;28;20041;-64
2021/03/08 02:09:52;;;;;;;12.32;4.47;;;;;;;;;;5053232;28;20044;-64
2021/03/08 02:12:58;;;;;;;10.70;4.43;;;;;;;;;;5052371;28;20071;-64
2021/03/08 02:15:44;;;;;;;9.13;4.63;;;;;;;;;;5030657;28;20057;-64
2021/03/08 02:18:43;;;;;;;14.57;5.18;;;;;;;;;;5033085;28;20380;-64
2021/03/08 02:21:39;;;;;;;15.30;5.20;;;;;;;;;;5018641;28;20041;-64
2021/03/08 02:24:27;;;;;;;11.32;4.20;;;;;;;;;;5018555;28;20077;-65
2021/03/08 02:27:13;;;;;;;12.95;3.42;;;;;;;;;;5032923;28;20510;-64
2021/03/08 02:30:17;;;;;;;11.13;4.13;;;;;;;;;;5033220;28;20045;-64
2021/03/08 02:33:02;;;;;;;14.38;5.00;;;;;;;;;;5033121;28;20134;-64
2021/03/08 02:35:48;;;;;;;13.20;3.53;;;;;;;;;;5018402;28;20056;-64
2021/03/08 02:38:34;;;;;;;12.27;3.42;;;;;;;;;;5018098;28;20056;-64
2021/03/08 02:41:22;;;;;;;11.23;3.92;;;;;;;;;;5032127;28;20056;-64
2021/03/08 02:44:08;;;;;;;12.27;3.70;;;;;;;;;;5018274;28;20487;-65
2021/03/08 02:46:54;;;;;;;15.35;4.35;;;;;;;;;;5032872;28;20057;-64
2021/03/08 02:49:40;;;;;;;14.40;4.55;;;;;;;;;;5017948;28;20052;-64
2021/03/08 02:52:26;;;;;;;12.32;4.47;;;;;;;;;;5017843;28;20057;-64
2021/03/08 02:55:12;;;;;;;12.20;4.70;;;;;;;;;;5027770;28;20052;-64
2021/03/08 02:57:57;;;;;;;12.15;4.47;;;;;;;;;;5051348;28;20053;-64
2021/03/08 03:00:43;;;;;;;12.80;4.72;;;;;;;;;;5037462;28;20036;-64
2021/03/08 03:03:30;;;;;;;13.70;4.72;;;;;;;;;;5037718;28;20041;-65
2021/03/08 03:06:15;;;;;;;18.27;4.82;;;;;;;;;;5050788;28;20462;-65
2021/03/08 03:09:02;;;;;;;12.63;4.97;;;;;;;;;;5051085;28;20052;-64
2021/03/08 03:11:49;;;;;;;14.93;4.43;;;;;;;;;;5052382;28;20044;-65
2021/03/08 03:14:34;;;;;;;14.15;3.80;;;;;;;;;;5052274;28;20140;-65
2021/03/08 03:17:19;;;;;;;10.07;3.22;;;;;;;;;;5031087;28;20045;-64
2021/03/08 03:20:06;;;;;;;14.38;3.97;;;;;;;;;;5016740;28;20533;-64
2021/03/08 03:22:52;;;;;;;12.45;4.90;;;;;;;;;;5032383;28;20049;-64
2021/03/08 03:25:38;;;;;;;11.55;3.28;;;;;;;;;;5032404;28;20041;-64
2021/03/08 03:28:23;;;;;;;12.77;3.70;;;;;;;;;;5017327;28;20049;-64
2021/03/08 03:31:08;;;;;;;11.20;3.30;;;;;;;;;;5032183;28;20053;-64
2021/03/08 03:33:54;;;;;;;18.45;4.10;;;;;;;;;;5032015;28;20041;-64
2021/03/08 03:36:40;;;;;;;13.52;3.28;;;;;;;;;;5042688;28;20045;-64
2021/03/08 03:39:25;;;;;;;13.82;3.45;;;;;;;;;;5050674;28;20491;-64
2021/03/08 03:42:10;;;;;;;13.02;4.20;;;;;;;;;;5051759;28;20045;-64
2021/03/08 03:44:55;;;;;;;18.35;4.45;;;;;;;;;;5052236;28;20048;-64
2021/03/08 03:47:40;;;;;;;20.23;3.83;;;;;;;;;;5035263;28;20049;-64
2021/03/08 03:50:26;;;;;;;21.25;3.95;;;;;;;;;;5031895;28;20136;-64
2021/03/08 03:53:11;;;;;;;11.25;3.95;;;;;;;;;;5033675;28;20046;-64
2021/03/08 03:55:56;;;;;;;13.02;3.75;;;;;;;;;;5035976;28;20057;-64
2021/03/08 03:58:44;;;;;;;15.07;3.03;;;;;;;;;;5035671;28;20077;-64
2021/03/08 04:01:35;;;;;;;17.88;4.05;;;;;;;;;;5036126;28;20045;-64
2021/03/08 04:04:40;;;;;;;15.52;3.72;;;;;;;;;;5021216;28;20487;-64
2021/03/08 04:07:26;;;;;;;12.93;3.80;;;;;;;;;;5021571;28;20128;-64
2021/03/08 04:10:11;;;;;;;16.17;3.40;;;;;;;;;;5035789;28;20049;-64
2021/03/08 04:13:00;;;;;;;16.98;3.33;;;;;;;;;;5021086;28;20061;-65
2021/03/08 04:15:45;;;;;;;17.38;3.40;;;;;;;;;;5035720;28;20404;-63
2021/03/08 04:18:31;;;;;;;16.73;5.57;;;;;;;;;;5049823;28;20045;-63
2021/03/08 04:21:16;;;;;;;15.48;3.05;;;;;;;;;;5044006;28;20037;-62
2021/03/08 04:24:01;;;;;;;14.98;3.08;;;;;;;;;;5034380;28;20128;-62
2021/03/08 04:26:48;;;;;;;12.48;2.67;;;;;;;;;;5034525;28;20053;-63
2021/03/08 04:29:36;;;;;;;13.32;3.00;;;;;;;;;;5034094;28;20136;-65
2021/03/08 04:32:22;;;;;;;14.80;3.88;;;;;;;;;;5021011;28;20041;-63
2021/03/08 04:35:08;;;;;;;13.82;3.17;;;;;;;;;;5038862;28;20045;-62
2021/03/08 04:37:54;;;;;;;13.77;2.88;;;;;;;;;;5035359;28;20113;-63
2021/03/08 04:40:39;;;;;;;11.18;3.20;;;;;;;;;;5035259;28;20124;-64
2021/03/08 04:43:24;;;;;;;8.50;3.13;;;;;;;;;;5025707;28;20060;-62
2021/03/08 04:46:09;;;;;;;15.32;2.92;;;;;;;;;;5053953;28;20048;-63
2021/03/08 04:48:55;;;;;;;16.10;3.65;;;;;;;;;;5054540;28;20041;-62
2021/03/08 04:51:40;;;;;;;13.45;4.53;;;;;;;;;;5039916;28;20495;-63
2021/03/08 04:54:25;;;;;;;16.92;3.53;;;;;;;;;;5028922;28;20403;-65
2021/03/08 04:57:11;;;;;;;9.85;2.70;;;;;;;;;;5031785;28;20120;-62
2021/03/08 04:59:56;;;;;;;13.27;3.20;;;;;;;;;;5054483;28;20037;-62
2021/03/08 05:02:43;;;;;;;8.85;3.00;;;;;;;;;;5054919;28;20045;-66
2021/03/08 05:05:28;;;;;;;15.18;3.25;;;;;;;;;;5038543;28;20128;-65
2021/03/08 05:08:14;;;;;;;11.77;3.30;;;;;;;;;;5054262;28;20491;-65
2021/03/08 05:10:59;;;;;;;13.95;3.63;;;;;;;;;;5053764;28;20049;-66
2021/03/08 05:13:45;;;;;;;16.33;3.20;;;;;;;;;;5053744;28;20053;-66
2021/03/08 05:16:30;;;;;;;14.02;2.88;;;;;;;;;;5033358;28;20448;-66
2021/03/08 05:19:15;;;;;;;12.85;3.13;;;;;;;;;;5032675;28;20046;-66
2021/03/08 05:22:00;;;;;;;11.38;2.92;;;;;;;;;;5034360;28;20045;-66
2021/03/08 05:24:48;;;;;;;14.02;3.20;;;;;;;;;;5051885;28;20491;-66
2021/03/08 05:27:34;;;;;;;11.50;3.65;;;;;;;;;;5054087;28;20128;-66
2021/03/08 05:30:20;;;;;;;21.63;4.35;;;;;;;;;;5053206;28;20041;-66
2021/03/08 05:33:09;;;;;;;13.50;3.25;;;;;;;;;;5054122;28;20048;-66
2021/03/08 05:35:55;;;;;;;13.88;3.60;;;;;;;;;;5041744;28;20106;-65
2021/03/08 05:38:40;;;;;;;10.52;3.25;;;;;;;;;;5033749;28;20041;-64
2021/03/08 05:41:29;;;;;;;14.18;3.47;;;;;;;;;;5033910;28;20420;-66
2021/03/08 05:44:14;;;;;;;13.05;3.20;;;;;;;;;;5019330;28;20128;-65
2021/03/08 05:47:03;;;;;;;14.95;3.20;;;;;;;;;;5036226;28;20116;-66
2021/03/08 05:49:48;;;;;;;16.80;4.30;;;;;;;;;;5053617;28;20046;-66
2021/03/08 05:52:48;;;;;;;21.40;5.25;;;;;;;;;;5053779;28;20048;-66
2021/03/08 05:55:52;;;;;;;19.58;4.63;;;;;;;;;;5050973;28;20056;-65
2021/03/08 05:58:45;;;;;;;15.10;4.85;;;;;;;;;;5033340;28;20128;-65
2021/03/08 06:01:33;;;;;;;19.05;4.55;;;;;;;;;;5018879;28;20496;-66
2021/03/08 06:04:22;;;;;;;14.40;4.35;;;;;;;;;;5033622;28;20045;-66
2021/03/08 06:07:26;;;;;;;14.60;4.35;;;;;;;;;;5045459;28;20052;-63
2021/03/08 06:10:13;;;;;;;18.58;4.00;;;;;;;;;;5052365;28;20531;-64
2021/03/08 06:12:59;;;;;;;15.50;3.72;;;;;;;;;;5053321;28;20044;-63
2021/03/08 06:15:44;;;;;;;21.27;4.10;;;;;;;;;;5052600;28;20041;-63
2021/03/08 06:18:33;;;;;;;19.92;3.38;;;;;;;;;;5052954;28;20084;-64
2021/03/08 06:21:18;;;;;;;14.55;3.75;;;;;;;;;;5052929;28;20053;-65
2021/03/08 06:24:06;;;;;;;17.55;3.70;;;;;;;;;;5053312;28;20511;-65
2021/03/08 06:26:51;;;;;;;16.23;3.70;;;;;;;;;;5049777;28;20041;-64
2021/03/08 06:29:37;;;;;;;15.88;3.38;;;;;;;;;;5017981;28;20053;-65
2021/03/08 06:32:22;;;;;;;12.00;3.17;;;;;;;;;;5033081;28;20049;-65
2021/03/08 06:35:07;;;;;;;12.77;3.25;;;;;;;;;;5018303;28;20045;-66
2021/03/08 06:37:53;;;;;;;18.70;5.18;;;;;;;;;;5041197;28;20495;-66
2021/03/08 06:40:38;;;;;;;16.83;4.28;;;;;;;;;;5048630;28;20069;-65
2021/03/08 06:43:23;;;;;;;23.90;5.97;;;;;;;;;;5043755;28;20163;-66
2021/03/08 06:46:08;;;;;;;14.98;4.15;;;;;;;;;;5021078;28;20504;-65
2021/03/08 06:48:53;;;;;;;16.40;4.22;;;;;;;;;;5045677;28;20037;-66
2021/03/08 06:51:57;;;;;;;12.70;3.72;;;;;;;;;;5052824;28;20098;-66
2021/03/08 06:54:43;;;;;;;17.55;3.75;;;;;;;;;;5051697;28;20063;-65
2021/03/08 06:57:29;;;;;;;16.20;3.90;;;;;;;;;;5052386;28;20077;-64
2021/03/08 07:00:14;;;;;;;19.92;4.20;;;;;;;;;;5018009;28;20172;-65
2021/03/08 07:03:00;;;;;;;13.02;3.97;;;;;;;;;;5032631;28;20064;-65
2021/03/08 07:05:45;;;;;;;20.67;5.35;;;;;;;;;;5032414;28;20448;-66
2021/03/08 07:08:31;;;;;;;12.65;3.60;;;;;;;;;;5032416;28;20037;-65
2021/03/08 07:11:17;;;;;;;17.38;4.97;;;;;;;;;;5032615;28;20055;-66
2021/03/08 07:14:02;;;;;;;11.90;4.55;;;;;;;;;;5032519;28;20057;-65
2021/03/08 07:16:47;;;;;;;13.07;4.82;;;;;;;;;;5032111;28;20484;-66
2021/03/08 07:19:32;;;;;;;13.77;4.18;;;;;;;;;;5042055;28;20065;-64
2021/03/08 07:22:25;;;;;;;18.35;3.95;;;;;;;;;;5051266;28;20049;-65
2021/03/08 07:25:16;;;;;;;14.85;3.42;;;;;;;;;;5051316;28;20044;-65
2021/03/08 07:28:02;;;;;;;15.10;3.00;;;;;;;;;;5051328;28;20120;-65
2021/03/08 07:30:47;;;;;;;18.80;3.92;;;;;;;;;;5034281;28;20412;-65
2021/03/08 07:33:32;;;;;;;13.65;3.05;;;;;;;;;;5032166;28;20076;-66
2021/03/08 07:36:17;;;;;;;11.05;3.13;;;;;;;;;;5031970;28;20045;-66
2021/03/08 07:39:13;;;;;;;16.48;4.63;;;;;;;;;;5031873;28;20095;-66
2021/03/08 07:41:58;;;;;;;12.38;4.07;;;;;;;;;;5051972;28;20084;-66
2021/03/08 07:44:49;;;;;;;14.77;3.83;;;;;;;;;;5051856;28;20037;-65
2021/03/08 07:47:34;;;;;;;16.35;3.97;;;;;;;;;;5049370;28;20045;-63
2021/03/08 07:50:26;;;;;;;20.25;3.20;;;;;;;;;;5048440;28;20049;-63
2021/03/08 07:53:30;;;;;;;11.13;3.10;;;;;;;;;;5031793;28;20054;-63
2021/03/08 07:56:15;;;;;;;18.92;3.40;;;;;;;;;;5019754;28;20115;-64
2021/03/08 07:59:00;;;;;;;16.85;3.35;;;;;;;;;;5051425;28;20128;-64
2021/03/08 08:01:46;;;;;;;15.02;3.25;;;;;;;;;;5050145;28;20470;-64
2021/03/08 08:04:31;;;;;;;15.82;2.95;;;;;;;;;;5051661;28;20050;-63
2021/03/08 08:07:17;;;;;;;16.65;4.25;;;;;;;;;;5042781;28;20049;-63
2021/03/08 08:10:03;;;;;;;14.10;4.35;;;;;;;;;;5017096;28;20058;-63
2021/03/08 08:12:49;;;;;;;13.32;3.35;;;;;;;;;;5032004;28;20057;-64
2021/03/08 08:15:36;;;;;;;16.08;3.70;;;;;;;;;;5051258;28;20049;-63
2021/03/08 08:18:22;;;;;;;13.02;3.63;;;;;;;;;;5050596;28;20049;-63
2021/03/08 08:21:07;;;;;;;12.77;3.42;;;;;;;;;;5051606;28;20049;-64
2021/03/08 08:23:56;;;;;;;16.98;3.95;;;;;;;;;;5031604;28;20399;-63
2021/03/08 08:26:41;;;;;;;17.23;4.30;;;;;;;;;;5017271;28;20042;-63
2021/03/08 08:29:27;;;;;;;15.15;4.20;;;;;;;;;;5016934;28;20045;-64
2021/03/08 08:32:12;;;;;;;12.95;4.65;;;;;;;;;;5033121;28;20052;-64
2021/03/08 08:34:57;;;;;;;17.30;4.35;;;;;;;;;;5031558;28;20041;-63
2021/03/08 08:37:43;;;;;;;17.35;4.60;;;;;;;;;;5031219;28;20045;-63
2021/03/08 08:40:28;;;;;;;15.05;4.00;;;;;;;;;;5035747;28;20049;-63
2021/03/08 08:43:16;;;;;;;17.25;5.10;;;;;;;;;;5055306;28;20087;-63
2021/03/08 08:46:01;;;;;;;17.80;4.78;;;;;;;;;;5054873;28;20502;-63
2021/03/08 08:49:02;;;;;;;16.23;4.47;;;;;;;;;;5053886;28;20053;-63
2021/03/08 08:51:55;;;;;;;13.55;4.22;;;;;;;;;;5049774;28;20045;-63
2021/03/08 08:54:40;;;;;;;16.00;4.83;;;;;;;;;;5054267;28;20462;-63
2021/03/08 08:57:25;;;;;;;15.25;4.32;;;;;;;;;;5054979;28;20053;-63
2021/03/08 09:00:24;;;;;;;14.32;3.70;;;;;;;;;;5054763;28;20045;-65
2021/03/08 09:03:18;;;;;;;13.75;4.22;;;;;;;;;;5022421;28;20049;-62
2021/03/08 09:06:04;;;;;;;15.10;4.90;;;;;;;;;;5034742;28;20045;-63
2021/03/08 09:08:53;;;;;;;19.40;4.25;;;;;;;;;;5019569;28;20045;-62
2021/03/08 09:11:57;;;;;;;13.18;3.80;;;;;;;;;;5036103;28;20049;-63
2021/03/08 09:14:48;;;;;;;9.73;3.92;;;;;;;;;;5054734;28;20045;-62
2021/03/08 09:17:33;;;;;;;17.35;4.47;;;;;;;;;;5054523;28;20045;-63
2021/03/08 09:20:22;;;;;;;13.05;4.28;;;;;;;;;;5054429;28;20040;-62
2021/03/08 09:23:21;;;;;;;11.18;4.75;;;;;;;;;;5053185;28;20045;-62
2021/03/08 09:26:06;;;;;;;12.88;4.82;;;;;;;;;;5034648;28;20041;-63
2021/03/08 09:28:52;;;;;;;16.88;4.63;;;;;;;;;;5040781;28;20115;-63
2021/03/08 09:31:37;;;;;;;12.18;4.32;;;;;;;;;;5048689;28;20511;-62
2021/03/08 09:34:22;;;;;;;9.50;4.05;;;;;;;;;;5019416;28;20041;-65
2021/03/08 09:37:07;;;;;;;15.38;4.95;;;;;;;;;;5034206;28;20112;-65
2021/03/08 09:39:53;;;;;;;12.80;4.25;;;;;;;;;;5033993;28;20045;-65
2021/03/08 09:42:39;;;;;;;15.80;5.25;;;;;;;;;;5053914;28;20128;-64
2021/03/08 09:45:26;;;;;;;11.88;4.15;;;;;;;;;;5053972;28;20049;-64
2021/03/08 09:48:13;;;;;;;14.23;4.25;;;;;;;;;;5038789;28;20044;-64
2021/03/08 09:51:07;;;;;;;13.02;3.83;;;;;;;;;;5052925;28;20041;-64
2021/03/08 09:53:55;;;;;;;13.35;5.00;;;;;;;;;;5053729;28;20044;-64
2021/03/08 09:56:43;;;;;;;11.98;4.28;;;;;;;;;;5038670;28;20072;-64
2021/03/08 09:59:29;;;;;;;13.45;3.85;;;;;;;;;;5053550;28;20045;-65
2021/03/08 10:02:17;;;;;;;16.15;4.43;;;;;;;;;;5053279;28;20116;-64
2021/03/08 10:05:02;;;;;;;13.55;4.07;;;;;;;;;;5052619;28;20040;-65
2021/03/08 10:07:51;;;;;;;10.48;3.17;;;;;;;;;;5053647;28;20440;-65
2021/03/08 10:10:43;;;;;;;12.63;3.42;;;;;;;;;;5053548;28;20049;-65
2021/03/08 10:13:28;;;;;;;8.93;3.22;;;;;;;;;;5053751;28;20049;-64
2021/03/08 10:16:19;;;;;;;13.95;4.30;;;;;;;;;;5052618;28;20127;-65
2021/03/08 10:19:08;;;;;;;12.45;2.92;;;;;;;;;;5053009;28;20041;-64
2021/03/08 10:21:53;;;;;;;12.38;3.88;;;;;;;;;;5053239;28;20495;-65
2021/03/08 10:24:40;;;;;;;11.30;3.35;;;;;;;;;;5052339;28;20087;-65
2021/03/08 10:27:25;;;;;;;14.77;3.97;;;;;;;;;;5052754;28;20578;-66
2021/03/08 10:30:15;;;;;;;14.43;4.07;;;;;;;;;;5023895;28;20041;-64
2021/03/08 10:33:02;;;;;;;14.48;4.03;;;;;;;;;;5038068;28;20071;-61
2021/03/08 10:35:54;;;;;;;11.25;3.60;;;;;;;;;;5051728;28;20049;-62
2021/03/08 10:38:40;;;;;;;;;;;;;;;;;;5038726;28;20053;-61
2021/03/08 10:41:26;;;;;;;12.75;3.28;;;;;;;;;;5052763;28;19920;-62
2021/03/08 10:44:18;;;;;;;13.30;3.38;;;;;;;;;;5023936;28;20049;-65
2021/03/08 10:47:12;;;;;;;11.02;3.42;;;;;;;;;;5051756;28;20052;-65
2021/03/08 10:49:58;;;;;;;10.70;3.50;;;;;;;;;;5052072;28;20144;-63
2021/03/08 10:52:43;;;;;;;9.48;3.55;;;;;;;;;;5037265;28;20128;-64
2021/03/08 10:55:32;;;;;;;12.20;3.08;;;;;;;;;;5036683;28;20123;-65
2021/03/08 10:58:17;;;;;;;11.13;3.00;;;;;;;;;;5052346;28;20542;-64
2021/03/08 11:01:08;;;;;;;9.77;3.28;;;;;;;;;;5037545;28;20041;-64
2021/03/08 11:03:54;;;;;;;14.40;3.53;;;;;;;;;;5051906;28;20120;-64
2021/03/08 11:06:45;;;;;;;11.27;3.33;;;;;;;;;;5022548;28;20045;-65
2021/03/08 11:09:33;;;;;;;6.43;3.17;;;;;;;;;;5052093;28;20049;-65
2021/03/08 11:12:20;;;;;;;13.63;3.78;;;;;;;;;;5052238;28;20067;-65
2021/03/08 11:15:06;;;;;;;10.18;3.05;;;;;;;;;;5052101;28;20041;-64
2021/03/08 11:17:51;;;;;;;15.77;3.35;;;;;;;;;;5036165;28;20045;-65
2021/03/08 11:20:36;;;;;;;9.80;3.67;;;;;;;;;;5052093;28;20048;-65
2021/03/08 11:23:25;;;;;;;8.57;3.10;;;;;;;;;;5051678;28;20037;-64
2021/03/08 11:26:11;;;;;;;11.73;4.30;;;;;;;;;;5048270;28;20044;-67
2021/03/08 11:28:56;;;;;;;10.38;2.97;;;;;;;;;;5002346;28;20438;-66
2021/03/08 11:31:52;;;;;;;10.55;3.45;;;;;;;;;;5033937;28;20415;-67
2021/03/08 11:34:41;;;;;;;10.70;2.95;;;;;;;;;;5054907;28;20072;-66
2021/03/08 11:37:27;;;;;;;16.75;3.70;;;;;;;;;;5054743;28;20053;-63
2021/03/08 11:40:12;;;;;;;13.40;3.33;;;;;;;;;;5054690;28;20401;-66
2021/03/08 11:42:57;;;;;;;11.43;3.72;;;;;;;;;;5039655;28;20124;-66
2021/03/08 11:45:43;;;;;;;7.65;2.80;;;;;;;;;;5054597;28;20037;-66
2021/03/08 11:48:28;;;;;;;12.23;2.72;;;;;;;;;;5053865;28;20414;-65
2021/03/08 11:51:13;;;;;;;13.45;3.83;;;;;;;;;;5052916;28;20041;-67
2021/03/08 11:53:59;;;;;;;10.70;3.10;;;;;;;;;;5053836;28;20139;-67
2021/03/08 11:56:45;;;;;;;9.90;2.90;;;;;;;;;;5054512;28;20045;-67
2021/03/08 11:59:30;;;;;;;13.15;3.75;;;;;;;;;;5038347;28;20116;-67
2021/03/08 12:02:15;;;;;;;9.77;4.35;;;;;;;;;;5050779;28;20488;-64
2021/03/08 12:05:00;;;;;;;15.23;5.50;;;;;;;;;;5051810;28;20048;-64
2021/03/08 12:07:46;;;;;;;12.15;4.50;;;;;;;;;;5051392;28;20044;-66
2021/03/08 12:10:31;;;;;;;13.18;3.92;;;;;;;;;;5051679;28;20632;-65
2021/03/08 12:13:17;;;;;;;12.05;4.28;;;;;;;;;;5036179;28;20049;-65
2021/03/08 12:16:02;;;;;;;10.18;3.85;;;;;;;;;;5055439;28;20185;-66
2021/03/08 12:18:48;;;;;;;7.80;2.67;;;;;;;;;;5055856;28;20123;-64
2021/03/08 12:21:34;;;;;;;7.38;3.60;;;;;;;;;;5054752;28;20566;-65
2021/03/08 12:24:19;;;;;;;8.55;3.20;;;;;;;;;;5055386;28;20060;-64
2021/03/08 12:27:05;;;;;;;9.98;3.78;;;;;;;;;;5055469;28;20045;-64
2021/03/08 12:29:50;;;;;;;8.48;3.22;;;;;;;;;;5055137;28;20041;-64
2021/03/08 12:32:35;;;;;;;11.30;3.38;;;;;;;;;;5054636;28;20053;-64
2021/03/08 12:35:21;;;;;;;8.60;3.80;;;;;;;;;;5055157;28;20044;-65
2021/03/08 12:38:06;;;;;;;12.73;4.03;;;;;;;;;;5055007;28;20053;-65
2021/03/08 12:40:51;;;;;;;8.02;3.47;;;;;;;;;;5055144;28;20049;-64
2021/03/08 12:43:37;;;;;;;9.23;3.70;;;;;;;;;;5054422;28;20128;-65
2021/03/08 12:46:24;;;;;;;9.63;3.38;;;;;;;;;;5055191;28;20056;-65
2021/03/08 12:49:09;;;;;;;8.52;3.03;;;;;;;;;;5054748;28;20045;-64
2021/03/08 12:51:54;;;;;;;14.32;4.05;;;;;;;;;;5055085;28;20045;-65
2021/03/08 12:54:40;;;;;;;10.48;2.83;;;;;;;;;;5054172;28;20044;-65
2021/03/08 12:57:25;;;;;;;9.15;3.33;;;;;;;;;;5054032;28;20099;-64
2021/03/08 13:00:11;;;;;;;8.55;2.65;;;;;;;;;;5054966;28;20124;-64
2021/03/08 13:02:56;;;;;;;13.48;3.45;;;;;;;;;;5053824;28;20041;-65
2021/03/08 13:05:41;;;;;;;14.20;4.50;;;;;;;;;;5054668;28;20095;-64
2021/03/08 13:08:26;;;;;;;10.00;2.90;;;;;;;;;;5054246;28;20053;-64
2021/03/08 13:11:11;;;;;;;14.82;3.85;;;;;;;;;;5054572;28;20037;-64
2021/03/08 13:13:58;;;;;;;10.88;4.07;;;;;;;;;;5053708;28;20491;-64
2021/03/08 13:16:43;;;;;;;12.23;4.45;;;;;;;;;;5054200;28;20449;-64
2021/03/08 13:19:28;;;;;;;13.45;4.00;;;;;;;;;;5054431;28;20048;-64
2021/03/08 13:22:14;;;;;;;11.50;3.85;;;;;;;;;;5054303;28;20120;-64
2021/03/08 13:24:59;;;;;;;9.20;3.67;;;;;;;;;;5053022;28;20530;-64
2021/03/08 13:27:45;;;;;;;11.10;3.25;;;;;;;;;;5043105;28;20041;-64
2021/03/08 13:30:30;;;;;;;13.10;3.90;;;;;;;;;;5045742;28;20123;-65
2021/03/08 13:33:15;;;;;;;11.75;3.78;;;;;;;;;;5053955;28;20041;-65
2021/03/08 13:36:00;;;;;;;9.45;3.92;;;;;;;;;;5024571;28;20120;-65
2021/03/08 13:38:45;;;;;;;11.98;4.10;;;;;;;;;;5038577;28;20552;-65
2021/03/08 13:41:31;;;;;;;10.18;4.35;;;;;;;;;;5053872;28;20080;-65
2021/03/08 13:44:16;;;;;;;10.93;3.83;;;;;;;;;;5021393;28;20095;-65
2021/03/08 13:47:02;;;;;;;12.35;3.88;;;;;;;;;;5034087;28;20042;-65
2021/03/08 13:49:47;;;;;;;11.40;4.25;;;;;;;;;;5009636;28;20132;-64
2021/03/08 13:52:32;;;;;;;10.50;4.00;;;;;;;;;;5038850;28;20049;-64
2021/03/08 13:55:18;;;;;;;13.35;4.25;;;;;;;;;;5037840;28;20399;-65
2021/03/08 13:58:03;;;;;;;11.85;3.70;;;;;;;;;;4993179;28;20201;-65
2021/03/08 14:00:49;;;;;;;12.32;3.80;;;;;;;;;;5008399;28;20044;-64
2021/03/08 14:03:34;;;;;;;7.50;3.40;;;;;;;;;;5021871;28;20056;-65
2021/03/08 14:06:20;;;;;;;9.63;3.20;;;;;;;;;;5006965;28;20053;-65
2021/03/08 14:09:06;;;;;;;13.50;3.53;;;;;;;;;;5035603;28;20049;-65
2021/03/08 14:11:51;;;;;;;12.20;4.15;;;;;;;;;;5038560;28;20392;-65
2021/03/08 14:14:37;;;;;;;11.43;4.32;;;;;;;;;;5024560;28;20187;-65
2021/03/08 14:17:22;;;;;;;10.55;4.10;;;;;;;;;;5052405;28;20048;-65
2021/03/08 14:20:08;;;;;;;11.48;3.75;;;;;;;;;;5042209;28;20045;-65
2021/03/08 14:22:53;;;;;;;10.82;4.07;;;;;;;;;;5046542;28;20102;-65
2021/03/08 14:25:39;;;;;;;7.80;3.38;;;;;;;;;;5052558;28;20045;-65
2021/03/08 14:28:25;;;;;;;11.68;4.32;;;;;;;;;;5032828;28;20041;-66
2021/03/08 14:31:10;;;;;;;15.45;4.82;;;;;;;;;;5033140;28;20037;-65
2021/03/08 14:33:55;;;;;;;7.57;3.60;;;;;;;;;;5032852;28;20045;-65
2021/03/08 14:36:41;;;;;;;11.43;4.03;;;;;;;;;;5036931;28;20044;-65
2021/03/08 14:39:26;;;;;;;16.38;6.47;;;;;;;;;;5052447;28;20128;-65
2021/03/08 14:42:12;;;;;;;11.10;4.03;;;;;;;;;;5052564;28;20041;-65
2021/03/08 14:44:57;;;;;;;10.45;3.42;;;;;;;;;;5040081;28;20116;-65
2021/03/08 14:47:42;;;;;;;8.48;3.72;;;;;;;;;;5051661;28;20470;-65
2021/03/08 14:50:28;;;;;;;10.43;3.70;;;;;;;;;;5049239;28;20037;-65
2021/03/08 14:53:14;;;;;;;6.90;3.65;;;;;;;;;;5034881;28;20048;-65
2021/03/08 14:56:00;;;;;;;9.07;3.47;;;;;;;;;;5029267;28;20127;-64
2021/03/08 14:58:45;;;;;;;11.40;4.25;;;;;;;;;;5042996;28;20408;-65
2021/03/08 15:01:31;;;;;;;11.13;4.60;;;;;;;;;;5042680;28;20044;-65
2021/03/08 15:04:16;;;;;;;10.98;4.50;;;;;;;;;;5042488;28;20040;-65
2021/03/08 15:07:01;;;;;;;9.35;4.53;;;;;;;;;;5042253;28;20041;-65
2021/03/08 15:09:47;;;;;;;11.02;3.95;;;;;;;;;;5041876;28;20048;-65
2021/03/08 15:12:32;;;;;;;7.80;4.38;;;;;;;;;;5041047;28;20072;-65
2021/03/08 15:15:18;;;;;;;12.35;4.43;;;;;;;;;;5041849;28;20392;-65
2021/03/08 15:18:03;;;;;;;11.05;3.90;;;;;;;;;;5043184;28;20088;-65
2021/03/08 15:20:49;;;;;;;8.65;4.20;;;;;;;;;;5043363;28;20136;-65
2021/03/08 15:23:34;;;;;;;10.00;4.20;;;;;;;;;;5032079;28;20045;-65
2021/03/08 15:26:19;;;;;;;6.95;4.00;;;;;;;;;;5032116;28;20132;-65
2021/03/08 15:29:05;;;;;;;8.93;4.28;;;;;;;;;;5040797;28;20521;-65
2021/03/08 15:31:50;;;;;;;10.27;4.40;;;;;;;;;;5051959;28;20507;-65
2021/03/08 15:34:36;;;;;;;9.93;4.32;;;;;;;;;;5051809;28;20052;-65
2021/03/08 15:37:21;;;;;;;11.13;4.25;;;;;;;;;;5051799;28;20672;-65
2021/03/08 15:40:07;;;;;;;7.65;4.47;;;;;;;;;;5051048;28;20049;-64
2021/03/08 15:42:52;;;;;;;9.50;5.18;;;;;;;;;;5051945;28;20049;-64
2021/03/08 15:45:37;;;;;;;13.13;5.18;;;;;;;;;;5051746;28;20048;-64
2021/03/08 15:48:23;;;;;;;13.25;5.63;;;;;;;;;;5048980;28;20495;-64
2021/03/08 15:51:08;;;;;;;7.32;4.53;;;;;;;;;;5048433;28;20041;-65
2021/03/08 15:53:53;;;;;;;10.18;5.25;;;;;;;;;;5037057;28;20049;-64
2021/03/08 15:56:39;;;;;;;9.57;5.45;;;;;;;;;;5030144;28;20045;-65
2021/03/08 15:59:24;;;;;;;8.45;5.40;;;;;;;;;;5031131;28;20504;-64
2021/03/08 16:02:10;;;;;;;8.35;5.07;;;;;;;;;;5048738;28;20041;-65
2021/03/08 16:04:55;;;;;;;10.55;5.95;;;;;;;;;;5051496;28;20525;-64
2021/03/08 16:07:41;;;;;;;9.20;5.10;;;;;;;;;;5051463;28;20045;-64
2021/03/08 16:10:26;;;;;;;9.95;5.50;;;;;;;;;;5049169;28;20049;-64
2021/03/08 16:13:12;;;;;;;10.63;4.65;;;;;;;;;;5051660;28;20076;-63
2021/03/08 16:15:58;;;;;;;10.68;5.38;;;;;;;;;;5051486;28;20447;-63
2021/03/08 16:18:43;;;;;;;8.95;5.28;;;;;;;;;;5051283;28;20492;-64
2021/03/08 16:21:28;;;;;;;9.68;5.53;;;;;;;;;;5050780;28;20044;-65
2021/03/08 16:24:14;;;;;;;12.50;5.65;;;;;;;;;;5051596;28;20131;-65
2021/03/08 16:27:00;;;;;;;13.50;5.90;;;;;;;;;;5039774;28;20045;-65